createdAt,value
2018-04-13T00:00:58.907Z,0
2018-04-13T00:02:06.957Z,0
2018-04-13T00:03:15.011Z,0
2018-04-13T00:04:23.089Z,0
2018-04-13T00:05:31.142Z,0
2018-04-13T00:06:39.233Z,0
2018-04-13T00:07:47.262Z,0
2018-04-13T00:08:55.304Z,0
2018-04-13T00:10:03.399Z,0
2018-04-13T00:11:11.409Z,0
2018-04-13T00:12:19.505Z,0
2018-04-13T00:13:27.584Z,0
2018-04-13T00:14:35.631Z,0
2018-04-13T00:15:43.702Z,0
2018-04-13T00:16:51.724Z,0
2018-04-13T00:17:59.813Z,0
2018-04-13T00:19:07.879Z,0
2018-04-13T00:20:15.927Z,0
2018-04-13T00:21:23.997Z,0
2018-04-13T00:22:32.049Z,0
2018-04-13T00:23:40.127Z,0
2018-04-13T00:24:48.174Z,0
2018-04-13T00:25:56.238Z,0
2018-04-13T00:27:04.300Z,0
2018-04-13T00:28:12.360Z,0
2018-04-13T00:29:20.418Z,0
2018-04-13T00:30:28.491Z,0
2018-04-13T00:31:36.540Z,0
2018-04-13T00:32:44.606Z,0
2018-04-13T00:33:52.669Z,0
2018-04-13T00:35:00.712Z,0
2018-04-13T00:36:08.775Z,0
2018-04-13T00:37:16.853Z,0
2018-04-13T00:38:24.900Z,0
2018-04-13T00:39:32.968Z,0
2018-04-13T00:40:40.998Z,0
2018-04-13T00:41:49.093Z,0
2018-04-13T00:42:57.146Z,0
2018-04-13T00:44:05.210Z,0
2018-04-13T00:45:13.269Z,0
2018-04-13T00:46:21.303Z,0
2018-04-13T00:47:29.389Z,0
2018-04-13T00:48:37.447Z,0
2018-04-13T00:49:45.512Z,0
2018-04-13T00:50:53.568Z,0
2018-04-13T00:52:01.619Z,0
2018-04-13T00:53:09.689Z,0
2018-04-13T00:54:17.752Z,0
2018-04-13T00:55:25.817Z,0
2018-04-13T00:56:33.870Z,0
2018-04-13T00:57:41.944Z,0
2018-04-13T00:58:49.993Z,0
2018-04-13T00:59:58.057Z,0
2018-04-13T01:01:06.116Z,0
2018-04-13T01:02:14.168Z,0
2018-04-13T01:03:22.237Z,0
2018-04-13T01:04:30.299Z,0
2018-04-13T01:05:38.360Z,0
2018-04-13T01:06:46.423Z,0
2018-04-13T01:07:54.478Z,0
2018-04-13T01:09:02.555Z,0
2018-04-13T01:10:10.593Z,0
2018-04-13T01:11:18.662Z,0
2018-04-13T01:12:26.721Z,0
2018-04-13T01:13:34.793Z,0
2018-04-13T01:14:42.849Z,0
2018-04-13T01:15:50.884Z,0
2018-04-13T01:16:58.952Z,0
2018-04-13T01:18:07.029Z,0
2018-04-13T01:19:15.088Z,0
2018-04-13T01:20:23.145Z,0
2018-04-13T01:21:31.171Z,0
2018-04-13T01:22:39.269Z,0
2018-04-13T01:23:47.313Z,0
2018-04-13T01:24:55.371Z,0
2018-04-13T01:26:03.440Z,0
2018-04-13T01:27:11.478Z,0
2018-04-13T01:28:19.566Z,0
2018-04-13T01:29:27.615Z,0
2018-04-13T01:30:35.693Z,0
2018-04-13T01:31:43.742Z,0
2018-04-13T01:32:51.785Z,0
2018-04-13T01:33:59.856Z,0
2018-04-13T01:35:07.909Z,0
2018-04-13T01:36:15.989Z,0
2018-04-13T01:37:24.035Z,0
2018-04-13T01:38:32.098Z,0
2018-04-13T01:39:40.160Z,0
2018-04-13T01:40:48.229Z,0
2018-04-13T01:41:56.291Z,0
2018-04-13T01:43:04.352Z,0
2018-04-13T01:44:12.401Z,0
2018-04-13T01:45:20.473Z,0
2018-04-13T01:46:28.523Z,0
2018-04-13T01:47:36.578Z,0
2018-04-13T01:48:44.641Z,0
2018-04-13T01:49:52.707Z,0
2018-04-13T01:51:00.748Z,0
2018-04-13T01:52:08.817Z,0
2018-04-13T01:53:16.887Z,0
2018-04-13T01:54:24.944Z,0
2018-04-13T01:55:33.034Z,0
2018-04-13T01:56:41.038Z,0
2018-04-13T01:57:49.123Z,0
2018-04-13T01:58:57.194Z,0
2018-04-13T02:00:05.244Z,0
2018-04-13T02:01:13.300Z,0
2018-04-13T02:02:21.338Z,0
2018-04-13T02:03:29.419Z,0
2018-04-13T02:04:37.480Z,0
2018-04-13T02:05:45.535Z,0
2018-04-13T02:06:53.604Z,0
2018-04-13T02:08:01.649Z,0
2018-04-13T02:09:09.725Z,0
2018-04-13T02:10:17.775Z,0
2018-04-13T02:11:25.841Z,0
2018-04-13T02:12:33.902Z,0
2018-04-13T02:13:41.963Z,0
2018-04-13T02:14:50.011Z,0
2018-04-13T02:15:58.080Z,0
2018-04-13T02:17:06.145Z,0
2018-04-13T02:18:14.193Z,0
2018-04-13T02:19:22.251Z,0
2018-04-13T02:20:30.318Z,0
2018-04-13T02:21:38.374Z,0
2018-04-13T02:22:46.434Z,0
2018-04-13T02:23:54.490Z,0
2018-04-13T02:25:02.537Z,0
2018-04-13T02:26:10.601Z,0
2018-04-13T02:27:18.663Z,0
2018-04-13T02:28:26.720Z,0
2018-04-13T02:29:34.788Z,0
2018-04-13T02:30:42.846Z,0
2018-04-13T02:31:50.889Z,0
2018-04-13T02:32:58.964Z,0
2018-04-13T02:34:07.019Z,0
2018-04-13T02:35:15.082Z,0
2018-04-13T02:36:23.145Z,0
2018-04-13T02:37:31.166Z,0
2018-04-13T02:38:39.260Z,0
2018-04-13T02:39:47.327Z,0
2018-04-13T02:40:55.368Z,0
2018-04-13T02:42:03.439Z,0
2018-04-13T02:43:11.466Z,0
2018-04-13T02:44:19.561Z,0
2018-04-13T02:45:27.618Z,0
2018-04-13T02:46:35.679Z,0
2018-04-13T02:47:43.725Z,0
2018-04-13T02:48:51.781Z,0
2018-04-13T02:49:59.867Z,0
2018-04-13T02:51:07.909Z,0
2018-04-13T02:52:15.967Z,0
2018-04-13T02:53:24.034Z,0
2018-04-13T02:54:32.092Z,0
2018-04-13T02:55:40.150Z,0
2018-04-13T02:56:48.208Z,0
2018-04-13T02:57:56.279Z,0
2018-04-13T02:59:04.330Z,0
2018-04-13T03:00:12.385Z,0
2018-04-13T03:01:20.443Z,0
2018-04-13T03:02:28.528Z,0
2018-04-13T03:03:36.574Z,0
2018-04-13T03:04:44.620Z,0
2018-04-13T03:05:52.669Z,0
2018-04-13T03:07:00.737Z,0
2018-04-13T03:08:08.793Z,0
2018-04-13T03:09:16.854Z,0
2018-04-13T03:10:24.910Z,0
2018-04-13T03:11:32.976Z,0
2018-04-13T03:12:41.006Z,0
2018-04-13T03:13:49.088Z,0
2018-04-13T03:14:57.155Z,0
2018-04-13T03:16:05.220Z,0
2018-04-13T03:17:13.261Z,0
2018-04-13T03:18:21.290Z,0
2018-04-13T03:19:29.385Z,0
2018-04-13T03:20:37.458Z,0
2018-04-13T03:21:45.499Z,0
2018-04-13T03:22:53.563Z,0
2018-04-13T03:24:01.596Z,0
2018-04-13T03:25:09.687Z,0
2018-04-13T03:26:17.735Z,0
2018-04-13T03:27:25.801Z,0
2018-04-13T03:28:33.848Z,0
2018-04-13T03:29:41.917Z,0
2018-04-13T03:30:49.985Z,0
2018-04-13T03:31:58.027Z,0
2018-04-13T03:33:06.100Z,0
2018-04-13T03:34:14.160Z,0
2018-04-13T03:35:22.221Z,0
2018-04-13T03:36:30.267Z,0
2018-04-13T03:37:38.328Z,0
2018-04-13T03:38:46.391Z,0
2018-04-13T03:39:54.453Z,0
2018-04-13T03:41:02.501Z,0
2018-04-13T03:42:10.576Z,0
2018-04-13T03:43:18.640Z,0
2018-04-13T03:44:26.678Z,0
2018-04-13T03:45:34.749Z,0
2018-04-13T03:46:42.809Z,0
2018-04-13T03:47:50.859Z,0
2018-04-13T03:48:58.929Z,0
2018-04-13T03:50:06.981Z,0
2018-04-13T03:51:15.053Z,0
2018-04-13T03:52:23.100Z,0
2018-04-13T03:53:31.141Z,0
2018-04-13T03:54:39.224Z,0
2018-04-13T03:55:47.283Z,0
2018-04-13T03:56:55.354Z,0
2018-04-13T03:58:03.405Z,0
2018-04-13T03:59:11.441Z,0
2018-04-13T04:00:19.538Z,0
2018-04-13T04:01:27.589Z,0
2018-04-13T04:02:35.638Z,0
2018-04-13T04:03:43.694Z,0
2018-04-13T04:04:51.739Z,0
2018-04-13T04:05:59.832Z,0
2018-04-13T04:07:07.880Z,0
2018-04-13T04:08:15.937Z,0
2018-04-13T04:09:23.999Z,0
2018-04-13T04:10:32.054Z,0
2018-04-13T04:11:40.125Z,0
2018-04-13T04:12:48.183Z,0
2018-04-13T04:13:56.243Z,0
2018-04-13T04:15:04.316Z,0
2018-04-13T04:16:12.361Z,0
2018-04-13T04:17:20.422Z,0
2018-04-13T04:18:28.476Z,0
2018-04-13T04:19:36.563Z,0
2018-04-13T04:20:44.601Z,0
2018-04-13T04:21:52.662Z,0
2018-04-13T04:23:00.716Z,0
2018-04-13T04:24:08.842Z,0
2018-04-13T04:25:16.855Z,0
2018-04-13T04:26:24.913Z,0
2018-04-13T04:27:32.975Z,0
2018-04-13T04:28:40.998Z,0
2018-04-13T04:29:49.076Z,0
2018-04-13T04:30:57.143Z,0
2018-04-13T04:32:05.202Z,0
2018-04-13T04:33:13.278Z,0
2018-04-13T04:34:21.304Z,0
2018-04-13T04:35:29.383Z,0
2018-04-13T04:36:37.444Z,0
2018-04-13T04:37:45.528Z,0
2018-04-13T04:38:53.563Z,0
2018-04-13T04:40:01.612Z,0
2018-04-13T04:41:09.714Z,0
2018-04-13T04:42:17.767Z,0
2018-04-13T04:43:25.802Z,0
2018-04-13T04:44:33.878Z,5
2018-04-13T04:45:41.924Z,5
2018-04-13T04:46:50.002Z,5
2018-04-13T04:47:58.044Z,5
2018-04-13T04:49:06.118Z,5
2018-04-13T04:50:14.180Z,5
2018-04-13T04:51:22.271Z,5
2018-04-13T04:52:30.306Z,5
2018-04-13T04:53:38.942Z,5
2018-04-13T04:54:46.427Z,10
2018-04-13T04:55:54.493Z,10
2018-04-13T04:57:02.553Z,10
2018-04-13T04:58:10.622Z,10
2018-04-13T04:59:20.008Z,10
2018-04-13T05:00:26.737Z,10
2018-04-13T05:01:34.803Z,15
2018-04-13T05:02:42.857Z,15
2018-04-13T05:03:50.908Z,15
2018-04-13T05:04:58.985Z,15
2018-04-13T05:06:07.050Z,15
2018-04-13T05:07:15.105Z,20
2018-04-13T05:08:23.208Z,20
2018-04-13T05:09:31.205Z,20
2018-04-13T05:10:39.286Z,20
2018-04-13T05:11:47.345Z,25
2018-04-13T05:12:55.410Z,25
2018-04-13T05:14:03.475Z,25
2018-04-13T05:15:11.513Z,30
2018-04-13T05:16:19.605Z,30
2018-04-13T05:17:27.647Z,30
2018-04-13T05:18:35.712Z,35
2018-04-13T05:19:43.767Z,35
2018-04-13T05:20:51.830Z,40
2018-04-13T05:21:59.891Z,45
2018-04-13T05:23:07.964Z,50
2018-04-13T05:24:16.007Z,55
2018-04-13T05:25:24.088Z,60
2018-04-13T05:26:32.156Z,60
2018-04-13T05:27:40.216Z,65
2018-04-13T05:28:48.279Z,70
2018-04-13T05:29:56.331Z,75
2018-04-13T05:31:04.387Z,80
2018-04-13T05:32:12.456Z,80
2018-04-13T05:33:20.508Z,75
2018-04-13T05:34:28.575Z,75
2018-04-13T05:35:36.633Z,70
2018-04-13T05:36:44.710Z,70
2018-04-13T05:37:52.769Z,70
2018-04-13T05:39:00.813Z,65
2018-04-13T05:40:08.882Z,65
2018-04-13T05:41:16.969Z,60
2018-04-13T05:42:25.047Z,60
2018-04-13T05:43:33.076Z,55
2018-04-13T05:44:41.118Z,55
2018-04-13T05:45:49.224Z,55
2018-04-13T05:46:57.257Z,50
2018-04-13T05:48:05.321Z,50
2018-04-13T05:49:13.393Z,50
2018-04-13T05:50:21.419Z,50
2018-04-13T05:51:29.510Z,50
2018-04-13T05:52:37.578Z,50
2018-04-13T05:53:45.642Z,55
2018-04-13T05:54:53.705Z,55
2018-04-13T05:56:01.754Z,60
2018-04-13T05:57:09.844Z,65
2018-04-13T05:58:17.892Z,70
2018-04-13T05:59:25.990Z,70
2018-04-13T06:00:34.003Z,75
2018-04-13T06:01:42.073Z,75
2018-04-13T06:02:50.139Z,80
2018-04-13T06:03:58.233Z,85
2018-04-13T06:05:06.252Z,90
2018-04-13T06:06:14.318Z,95
2018-04-13T06:07:22.375Z,95
2018-04-13T06:08:30.449Z,100
2018-04-13T06:09:38.506Z,100
2018-04-13T06:10:46.575Z,100
2018-04-13T06:11:54.614Z,100
2018-04-13T06:13:02.697Z,100
2018-04-13T06:14:10.749Z,100
2018-04-13T06:15:18.828Z,105
2018-04-13T06:16:26.869Z,105
2018-04-13T06:17:34.947Z,110
2018-04-13T06:18:43.000Z,115
2018-04-13T06:19:51.042Z,120
2018-04-13T06:20:59.143Z,125
2018-04-13T06:22:07.207Z,130
2018-04-13T06:23:15.248Z,140
2018-04-13T06:24:23.402Z,140
2018-04-13T06:25:31.349Z,150
2018-04-13T06:26:39.458Z,160
2018-04-13T06:27:47.507Z,170
2018-04-13T06:28:55.582Z,175
2018-04-13T06:30:03.631Z,180
2018-04-13T06:31:11.682Z,180
2018-04-13T06:32:19.753Z,175
2018-04-13T06:33:27.812Z,175
2018-04-13T06:34:35.888Z,170
2018-04-13T06:35:43.964Z,165
2018-04-13T06:36:55.045Z,160
2018-04-13T06:38:00.075Z,155
2018-04-13T06:39:08.138Z,155
2018-04-13T06:40:16.201Z,155
2018-04-13T06:41:24.260Z,155
2018-04-13T06:42:32.329Z,160
2018-04-13T06:43:40.398Z,165
2018-04-13T06:44:48.458Z,175
2018-04-13T06:45:56.513Z,180
2018-04-13T06:47:04.584Z,190
2018-04-13T06:48:12.642Z,200
2018-04-13T06:49:20.701Z,210
2018-04-13T06:50:28.762Z,215
2018-04-13T06:51:36.827Z,225
2018-04-13T06:52:44.898Z,235
2018-04-13T06:53:52.961Z,250
2018-04-13T06:55:01.001Z,255
2018-04-13T06:56:09.084Z,270
2018-04-13T06:57:17.147Z,280
2018-04-13T06:58:25.215Z,300
2018-04-13T06:59:33.277Z,320
2018-04-13T07:00:41.311Z,340
2018-04-13T07:01:49.526Z,365
2018-04-13T07:02:57.464Z,385
2018-04-13T07:04:05.525Z,410
2018-04-13T07:05:14.595Z,425
2018-04-13T07:06:22.660Z,450
2018-04-13T07:07:30.738Z,470
2018-04-13T07:08:38.780Z,480
2018-04-13T07:09:46.848Z,480
2018-04-13T07:10:54.923Z,475
2018-04-13T07:12:02.997Z,460
2018-04-13T07:13:11.039Z,455
2018-04-13T07:14:19.121Z,455
2018-04-13T07:15:27.181Z,455
2018-04-13T07:16:35.244Z,450
2018-04-13T07:17:43.304Z,450
2018-04-13T07:18:51.346Z,445
2018-04-13T07:19:59.446Z,445
2018-04-13T07:21:07.525Z,445
2018-04-13T07:22:15.573Z,445
2018-04-13T07:23:23.645Z,435
2018-04-13T07:24:31.700Z,430
2018-04-13T07:25:39.789Z,430
2018-04-13T07:26:47.832Z,440
2018-04-13T07:27:55.901Z,440
2018-04-13T07:29:03.971Z,440
2018-04-13T07:30:12.095Z,425
2018-04-13T07:31:20.111Z,400
2018-04-13T07:32:28.187Z,375
2018-04-13T07:33:36.251Z,370
2018-04-13T07:34:44.325Z,385
2018-04-13T07:35:52.387Z,420
2018-04-13T07:37:00.959Z,425
2018-04-13T07:38:08.513Z,405
2018-04-13T07:39:16.610Z,390
2018-04-13T07:40:24.664Z,385
2018-04-13T07:41:32.713Z,370
2018-04-13T07:42:40.786Z,325
2018-04-13T07:43:48.871Z,330
2018-04-13T07:44:56.963Z,425
2018-04-13T07:46:05.253Z,495
2018-04-13T07:47:13.071Z,500
2018-04-13T07:48:21.265Z,500
2018-04-13T07:49:29.197Z,550
2018-04-13T07:50:37.263Z,535
2018-04-13T07:51:45.331Z,425
2018-04-13T07:52:53.414Z,440
2018-04-13T07:54:01.452Z,600
2018-04-13T07:55:09.558Z,605
2018-04-13T07:56:17.619Z,605
2018-04-13T07:57:25.695Z,615
2018-04-13T07:58:33.761Z,630
2018-04-13T07:59:41.832Z,580
2018-04-13T08:00:50.502Z,595
2018-04-13T08:01:57.981Z,410
2018-04-13T08:03:06.060Z,395
2018-04-13T08:04:14.124Z,460
2018-04-13T08:05:22.196Z,410
2018-04-13T08:06:30.278Z,375
2018-04-13T08:07:38.339Z,290
2018-04-13T08:08:46.403Z,270
2018-04-13T08:09:54.509Z,275
2018-04-13T08:11:02.567Z,260
2018-04-13T08:12:10.622Z,265
2018-04-13T08:13:19.021Z,270
2018-04-13T08:14:26.768Z,270
2018-04-13T08:15:34.851Z,265
2018-04-13T08:16:42.924Z,305
2018-04-13T08:17:50.954Z,340
2018-04-13T08:18:59.057Z,355
2018-04-13T08:20:07.132Z,350
2018-04-13T08:21:15.199Z,360
2018-04-13T08:22:23.295Z,360
2018-04-13T08:23:31.323Z,355
2018-04-13T08:24:39.417Z,320
2018-04-13T08:25:47.490Z,285
2018-04-13T08:26:55.557Z,325
2018-04-13T08:28:03.641Z,415
2018-04-13T08:29:11.705Z,385
2018-04-13T08:30:19.805Z,310
2018-04-13T08:31:27.852Z,355
2018-04-13T08:32:35.942Z,350
2018-04-13T08:33:44.012Z,365
2018-04-13T08:34:52.086Z,515
2018-04-13T08:36:00.141Z,580
2018-04-13T08:37:08.221Z,565
2018-04-13T08:38:16.309Z,400
2018-04-13T08:39:24.360Z,375
2018-04-13T08:40:32.440Z,385
2018-04-13T08:41:40.514Z,440
2018-04-13T08:42:48.590Z,500
2018-04-13T08:43:56.658Z,430
2018-04-13T08:45:04.724Z,450
2018-04-13T08:46:12.823Z,375
2018-04-13T08:47:20.868Z,365
2018-04-13T08:48:28.962Z,360
2018-04-13T08:49:37.027Z,350
2018-04-13T08:50:45.111Z,365
2018-04-13T08:51:53.181Z,430
2018-04-13T08:53:01.254Z,510
2018-04-13T08:54:09.365Z,485
2018-04-13T08:55:17.433Z,455
2018-04-13T08:56:25.464Z,530
2018-04-13T08:57:33.549Z,605
2018-04-13T08:58:41.578Z,590
2018-04-13T08:59:49.678Z,565
2018-04-13T09:00:57.789Z,445
2018-04-13T09:02:05.830Z,385
2018-04-13T09:03:13.910Z,440
2018-04-13T09:04:21.977Z,465
2018-04-13T09:05:30.054Z,465
2018-04-13T09:06:38.171Z,550
2018-04-13T09:07:46.197Z,620
2018-04-13T09:08:54.253Z,555
2018-04-13T09:10:02.335Z,515
2018-04-13T09:11:10.400Z,525
2018-04-13T09:12:18.479Z,625
2018-04-13T09:13:26.553Z,650
2018-04-13T09:14:34.622Z,610
2018-04-13T09:15:42.696Z,515
2018-04-13T09:16:50.749Z,470
2018-04-13T09:17:58.821Z,420
2018-04-13T09:19:06.915Z,445
2018-04-13T09:20:14.973Z,465
2018-04-13T09:21:23.034Z,465
2018-04-13T09:22:31.080Z,465
2018-04-13T09:23:39.192Z,540
2018-04-13T09:24:47.252Z,565
2018-04-13T09:25:55.324Z,515
2018-04-13T09:27:03.405Z,445
2018-04-13T09:28:11.444Z,405
2018-04-13T09:29:19.538Z,430
2018-04-13T09:30:27.605Z,465
2018-04-13T09:31:35.676Z,500
2018-04-13T09:32:43.769Z,570
2018-04-13T09:33:51.814Z,555
2018-04-13T09:34:59.894Z,540
2018-04-13T09:36:07.976Z,520
2018-04-13T09:37:16.069Z,505
2018-04-13T09:38:24.103Z,470
2018-04-13T09:39:32.169Z,455
2018-04-13T09:40:40.240Z,520
2018-04-13T09:41:48.331Z,540
2018-04-13T09:42:56.406Z,510
2018-04-13T09:44:04.455Z,515
2018-04-13T09:45:12.528Z,470
2018-04-13T09:46:20.610Z,460
2018-04-13T09:47:28.676Z,480
2018-04-13T09:48:36.737Z,550
2018-04-13T09:49:44.808Z,585
2018-04-13T09:50:52.880Z,620
2018-04-13T09:52:00.944Z,660
2018-04-13T09:53:09.032Z,675
2018-04-13T09:54:17.094Z,625
2018-04-13T09:55:25.178Z,630
2018-04-13T09:56:33.255Z,605
2018-04-13T09:57:41.287Z,590
2018-04-13T09:58:49.391Z,575
2018-04-13T09:59:57.451Z,550
2018-04-13T10:01:05.524Z,490
2018-04-13T10:02:13.608Z,460
2018-04-13T10:03:21.647Z,490
2018-04-13T10:04:29.737Z,520
2018-04-13T10:05:37.838Z,545
2018-04-13T10:06:45.872Z,605
2018-04-13T10:07:53.945Z,615
2018-04-13T10:09:02.032Z,620
2018-04-13T10:10:10.094Z,565
2018-04-13T10:11:18.157Z,500
2018-04-13T10:12:26.225Z,530
2018-04-13T10:13:34.314Z,630
2018-04-13T10:14:42.376Z,700
2018-04-13T10:15:50.440Z,585
2018-04-13T10:16:58.508Z,515
2018-04-13T10:18:06.600Z,450
2018-04-13T10:19:14.653Z,315
2018-04-13T10:20:22.722Z,255
2018-04-13T10:21:30.795Z,300
2018-04-13T10:22:38.874Z,355
2018-04-13T10:23:46.980Z,370
2018-04-13T10:24:55.008Z,290
2018-04-13T10:26:03.084Z,255
2018-04-13T10:27:11.138Z,210
2018-04-13T10:28:19.231Z,175
2018-04-13T10:29:27.309Z,165
2018-04-13T10:30:35.374Z,175
2018-04-13T10:31:43.439Z,185
2018-04-13T10:32:51.472Z,205
2018-04-13T10:33:59.569Z,195
2018-04-13T10:35:07.659Z,165
2018-04-13T10:36:15.713Z,150
2018-04-13T10:37:23.787Z,135
2018-04-13T10:38:31.856Z,125
2018-04-13T10:39:39.915Z,115
2018-04-13T10:40:47.994Z,130
2018-04-13T10:41:56.060Z,145
2018-04-13T10:43:04.148Z,150
2018-04-13T10:44:12.403Z,135
2018-04-13T10:45:20.257Z,125
2018-04-13T10:46:28.754Z,125
2018-04-13T10:47:36.811Z,120
2018-04-13T10:48:44.881Z,100
2018-04-13T10:49:52.955Z,75
2018-04-13T10:51:00.986Z,60
2018-04-13T10:52:09.082Z,60
2018-04-13T10:53:17.158Z,65
2018-04-13T10:54:25.224Z,65
2018-04-13T10:55:33.299Z,65
2018-04-13T10:56:41.328Z,60
2018-04-13T10:57:49.418Z,60
2018-04-13T10:58:57.485Z,60
2018-04-13T11:00:05.542Z,65
2018-04-13T11:01:13.621Z,75
2018-04-13T11:02:21.667Z,80
2018-04-13T11:03:29.754Z,95
2018-04-13T11:04:37.831Z,130
2018-04-13T11:05:45.887Z,170
2018-04-13T11:06:53.952Z,255
2018-04-13T11:08:02.021Z,300
2018-04-13T11:09:10.098Z,425
2018-04-13T11:10:18.218Z,505
2018-04-13T11:11:26.216Z,480
2018-04-13T11:12:34.290Z,340
2018-04-13T11:13:42.339Z,350
2018-04-13T11:14:50.410Z,445
2018-04-13T11:15:58.474Z,450
2018-04-13T11:17:06.553Z,405
2018-04-13T11:18:14.604Z,365
2018-04-13T11:19:22.673Z,365
2018-04-13T11:20:30.722Z,375
2018-04-13T11:21:38.792Z,335
2018-04-13T11:22:46.860Z,320
2018-04-13T11:23:54.931Z,275
2018-04-13T11:25:02.992Z,255
2018-04-13T11:26:11.042Z,265
2018-04-13T11:27:19.119Z,255
2018-04-13T11:28:27.198Z,205
2018-04-13T11:29:35.255Z,185
2018-04-13T11:30:43.332Z,210
2018-04-13T11:31:51.360Z,255
2018-04-13T11:32:59.453Z,275
2018-04-13T11:34:07.514Z,275
2018-04-13T11:35:15.587Z,285
2018-04-13T11:36:23.641Z,280
2018-04-13T11:37:31.685Z,250
2018-04-13T11:38:39.804Z,200
2018-04-13T11:39:47.847Z,180
2018-04-13T11:40:55.901Z,205
2018-04-13T11:42:03.968Z,175
2018-04-13T11:43:12.051Z,185
2018-04-13T11:44:20.100Z,205
2018-04-13T11:45:28.165Z,195
2018-04-13T11:46:36.220Z,190
2018-04-13T11:47:44.294Z,190
2018-04-13T11:48:52.362Z,200
2018-04-13T11:50:00.421Z,210
2018-04-13T11:51:08.483Z,265
2018-04-13T11:52:16.541Z,285
2018-04-13T11:53:24.623Z,320
2018-04-13T11:54:32.676Z,370
2018-04-13T11:55:40.736Z,445
2018-04-13T11:56:48.803Z,445
2018-04-13T11:57:56.875Z,405
2018-04-13T11:59:04.927Z,390
2018-04-13T12:00:12.992Z,365
2018-04-13T12:01:21.047Z,305
2018-04-13T12:02:29.181Z,240
2018-04-13T12:03:37.192Z,205
2018-04-13T12:04:45.255Z,185
2018-04-13T12:05:53.297Z,150
2018-04-13T12:07:01.376Z,125
2018-04-13T12:08:09.451Z,105
2018-04-13T12:09:17.515Z,105
2018-04-13T12:10:25.582Z,115
2018-04-13T12:11:33.646Z,125
2018-04-13T12:12:41.692Z,140
2018-04-13T12:13:49.766Z,170
2018-04-13T12:14:57.835Z,190
2018-04-13T12:16:05.912Z,190
2018-04-13T12:17:13.970Z,205
2018-04-13T12:18:22.028Z,275
2018-04-13T12:19:30.093Z,335
2018-04-13T12:20:38.161Z,370
2018-04-13T12:21:46.212Z,450
2018-04-13T12:22:54.309Z,550
2018-04-13T12:24:02.361Z,635
2018-04-13T12:25:10.421Z,610
2018-04-13T12:26:18.485Z,525
2018-04-13T12:27:26.554Z,515
2018-04-13T12:28:34.612Z,495
2018-04-13T12:29:42.705Z,465
2018-04-13T12:30:50.733Z,420
2018-04-13T12:31:58.799Z,405
2018-04-13T12:33:06.875Z,390
2018-04-13T12:34:14.940Z,385
2018-04-13T12:35:23.004Z,375
2018-04-13T12:36:31.034Z,370
2018-04-13T12:37:39.128Z,405
2018-04-13T12:38:47.195Z,435
2018-04-13T12:39:55.252Z,445
2018-04-13T12:41:03.332Z,505
2018-04-13T12:42:11.363Z,510
2018-04-13T12:43:19.467Z,505
2018-04-13T12:44:27.531Z,450
2018-04-13T12:45:35.594Z,410
2018-04-13T12:46:43.721Z,385
2018-04-13T12:47:51.704Z,370
2018-04-13T12:48:59.821Z,365
2018-04-13T12:50:07.862Z,385
2018-04-13T12:51:15.907Z,400
2018-04-13T12:52:23.992Z,420
2018-04-13T12:53:32.087Z,420
2018-04-13T12:54:40.324Z,460
2018-04-13T12:55:48.219Z,525
2018-04-13T12:56:56.289Z,555
2018-04-13T12:58:04.314Z,580
2018-04-13T12:59:12.383Z,565
2018-04-13T13:00:20.451Z,495
2018-04-13T13:01:28.525Z,470
2018-04-13T13:02:36.578Z,470
2018-04-13T13:03:44.651Z,445
2018-04-13T13:04:52.712Z,435
2018-04-13T13:06:00.777Z,465
2018-04-13T13:07:08.854Z,560
2018-04-13T13:08:16.921Z,610
2018-04-13T13:09:25.027Z,535
2018-04-13T13:10:33.077Z,455
2018-04-13T13:11:41.100Z,505
2018-04-13T13:12:49.193Z,515
2018-04-13T13:13:57.275Z,480
2018-04-13T13:15:05.323Z,405
2018-04-13T13:16:13.389Z,320
2018-04-13T13:17:21.426Z,290
2018-04-13T13:18:29.524Z,275
2018-04-13T13:19:37.595Z,270
2018-04-13T13:20:45.659Z,250
2018-04-13T13:21:53.732Z,225
2018-04-13T13:23:01.797Z,210
2018-04-13T13:24:09.873Z,220
2018-04-13T13:25:17.938Z,225
2018-04-13T13:26:25.996Z,235
2018-04-13T13:27:34.063Z,260
2018-04-13T13:28:42.145Z,235
2018-04-13T13:29:50.209Z,240
2018-04-13T13:30:58.262Z,240
2018-04-13T13:32:06.336Z,290
2018-04-13T13:33:14.421Z,315
2018-04-13T13:34:22.460Z,340
2018-04-13T13:35:30.511Z,425
2018-04-13T13:36:38.592Z,455
2018-04-13T13:37:46.670Z,505
2018-04-13T13:38:54.725Z,500
2018-04-13T13:40:02.780Z,450
2018-04-13T13:41:10.853Z,415
2018-04-13T13:42:18.930Z,410
2018-04-13T13:43:27.000Z,465
2018-04-13T13:44:35.062Z,485
2018-04-13T13:45:43.137Z,495
2018-04-13T13:46:51.171Z,500
2018-04-13T13:47:59.260Z,445
2018-04-13T13:49:07.326Z,325
2018-04-13T13:50:15.397Z,240
2018-04-13T13:51:23.465Z,225
2018-04-13T13:52:31.496Z,215
2018-04-13T13:53:39.593Z,230
2018-04-13T13:54:47.678Z,290
2018-04-13T13:55:55.740Z,330
2018-04-13T13:57:03.796Z,375
2018-04-13T13:58:11.852Z,400
2018-04-13T13:59:19.926Z,345
2018-04-13T14:00:28.090Z,350
2018-04-13T14:01:36.051Z,280
2018-04-13T14:02:44.132Z,225
2018-04-13T14:03:52.201Z,175
2018-04-13T14:05:00.275Z,175
2018-04-13T14:06:08.322Z,245
2018-04-13T14:07:16.398Z,260
2018-04-13T14:08:24.464Z,250
2018-04-13T14:09:32.564Z,265
2018-04-13T14:10:40.585Z,245
2018-04-13T14:11:48.659Z,225
2018-04-13T14:12:56.750Z,225
2018-04-13T14:14:04.803Z,265
2018-04-13T14:15:12.852Z,310
2018-04-13T14:16:20.898Z,325
2018-04-13T14:17:29.002Z,345
2018-04-13T14:18:37.058Z,370
2018-04-13T14:19:45.104Z,385
2018-04-13T14:20:53.183Z,370
2018-04-13T14:22:01.221Z,365
2018-04-13T14:23:09.316Z,375
2018-04-13T14:24:17.392Z,295
2018-04-13T14:25:25.448Z,220
2018-04-13T14:26:33.564Z,190
2018-04-13T14:27:41.566Z,185
2018-04-13T14:28:49.653Z,175
2018-04-13T14:29:57.714Z,195
2018-04-13T14:31:05.786Z,220
2018-04-13T14:32:13.854Z,255
2018-04-13T14:33:21.917Z,335
2018-04-13T14:34:29.994Z,425
2018-04-13T14:35:38.052Z,370
2018-04-13T14:36:46.113Z,260
2018-04-13T14:37:54.184Z,215
2018-04-13T14:39:02.251Z,215
2018-04-13T14:40:10.315Z,250
2018-04-13T14:41:18.409Z,275
2018-04-13T14:42:26.437Z,290
2018-04-13T14:43:34.513Z,295
2018-04-13T14:44:42.629Z,310
2018-04-13T14:45:50.648Z,300
2018-04-13T14:46:58.713Z,300
2018-04-13T14:48:06.781Z,330
2018-04-13T14:49:14.852Z,345
2018-04-13T14:50:22.907Z,350
2018-04-13T14:51:30.953Z,305
2018-04-13T14:52:39.034Z,240
2018-04-13T14:53:47.100Z,185
2018-04-13T14:54:55.177Z,150
2018-04-13T14:56:03.234Z,135
2018-04-13T14:57:11.279Z,155
2018-04-13T14:58:19.363Z,175
2018-04-13T14:59:27.436Z,195
2018-04-13T15:00:35.498Z,220
2018-04-13T15:01:43.575Z,250
2018-04-13T15:02:51.605Z,255
2018-04-13T15:03:59.699Z,245
2018-04-13T15:05:07.768Z,225
2018-04-13T15:06:15.826Z,210
2018-04-13T15:07:23.888Z,180
2018-04-13T15:08:31.958Z,150
2018-04-13T15:09:40.021Z,130
2018-04-13T15:10:48.089Z,110
2018-04-13T15:11:56.154Z,110
2018-04-13T15:13:04.225Z,125
2018-04-13T15:14:12.308Z,160
2018-04-13T15:15:20.351Z,205
2018-04-13T15:16:28.416Z,210
2018-04-13T15:17:36.501Z,180
2018-04-13T15:18:44.550Z,170
2018-04-13T15:19:52.623Z,155
2018-04-13T15:21:00.691Z,125
2018-04-13T15:22:08.749Z,100
2018-04-13T15:23:16.817Z,90
2018-04-13T15:24:24.884Z,95
2018-04-13T15:25:32.948Z,90
2018-04-13T15:26:40.994Z,90
2018-04-13T15:27:49.086Z,80
2018-04-13T15:28:57.157Z,80
2018-04-13T15:30:05.204Z,100
2018-04-13T15:31:14.100Z,145
2018-04-13T15:32:21.301Z,175
2018-04-13T15:33:30.250Z,195
2018-04-13T15:34:37.557Z,175
2018-04-13T15:35:45.541Z,155
2018-04-13T15:36:53.596Z,125
2018-04-13T15:38:01.640Z,100
2018-04-13T15:39:09.722Z,85
2018-04-13T15:40:17.856Z,80
2018-04-13T15:41:25.879Z,80
2018-04-13T15:42:34.311Z,95
2018-04-13T15:43:41.985Z,110
2018-04-13T15:44:50.053Z,150
2018-04-13T15:45:58.121Z,205
2018-04-13T15:47:06.182Z,255
2018-04-13T15:48:14.234Z,320
2018-04-13T15:49:22.347Z,380
2018-04-13T15:50:30.369Z,425
2018-04-13T15:51:38.439Z,355
2018-04-13T15:52:46.517Z,275
2018-04-13T15:53:54.573Z,225
2018-04-13T15:55:02.638Z,200
2018-04-13T15:56:10.701Z,185
2018-04-13T15:57:18.758Z,185
2018-04-13T15:58:26.841Z,180
2018-04-13T15:59:34.907Z,165
2018-04-13T16:00:42.957Z,140